Country
Station

 

Weather  for  Tsabong  -  Botswana    Botswana

  
32 °C (90 °F)
    
 
 

Current METAR for Tsabong is :

FBTS 180600Z VRB02KT CAVOK 32/03 Q1014

 

This is a report for Tsabong - Botswana.
 
The report was made 107 hours and 36 minutes ago, at 06:00 UTC .
The wind was blowing at a speed of 1.0 meters per second (2.3 miles per hour) from variable directions.
 
The temperature was 32 °C (90 °F), with a dew-point at 3 °C (37 °F).
The temperature felt like 30 °C (86 °F).
 
The atmospheric pressure was 1014 hPa (29.94 inHg).
The relative humidity was 15.9%.
 
There were no clouds below 1500 meter (5000 feet) and no cumulonimbus clouds.
 
The overall visibility was greater than 10 kilometers (6.2 miles).
 

 
 
 
 

Country :   A   B   C   D   E   F   G   H   I   J   K   L   M   N   O   P   Q   R   S   T   U   V   W   Y   Z

 

Site Info  |  Disclaimer  |  Credits  |  Privacy
Contact us  |  Add to favorites
© 2013-2019 METARs - All rights reserved